Time;durP1;ratioP1;P1;durP2;ratioP2;P2;SDS_P1;SDS_P2;PMS_P1;PMS_P2;Temp;Humidity;BMP_temperature;BMP_pressure;BME280_temperature;BME280_humidity;BME280_pressure;Samples;Min_cycle;Max_cycle;Signal;HPM_P1;HPM_P2
2023/04/27 00:01:42;;;;;;;1.77;1.42;;;;;;;;;;5052022;28;20489;-30
2023/04/27 00:04:09;;;;;;;1.70;1.48;;;17.90;66.10;;;;;;5051444;28;20059;-30
2023/04/27 00:06:35;;;;;;;2.45;1.75;;;18.60;66.10;;;;;;5051788;28;20052;-29
2023/04/27 00:09:03;;;;;;;2.45;1.38;;;;;;;;;;5050919;28;20059;-30
2023/04/27 00:11:31;;;;;;;1.50;1.23;;;19.00;66.70;;;;;;5051810;28;20468;-29
2023/04/27 00:13:58;;;;;;;2.80;1.55;;;;;;;;;;5067926;28;20044;-30
2023/04/27 00:16:25;;;;;;;2.08;1.30;;;19.00;66.80;;;;;;5066476;28;20043;-30
2023/04/27 00:18:52;;;;;;;1.77;1.50;;;;;;;;;;5051586;28;20065;-30
2023/04/27 00:21:19;;;;;;;2.05;1.45;;;18.80;66.40;;;;;;5051365;28;20071;-30
2023/04/27 00:23:46;;;;;;;1.98;1.50;;;;;;;;;;5051745;28;20053;-30
2023/04/27 00:26:13;;;;;;;1.98;1.50;;;17.20;65.80;;;;;;5051638;28;20083;-30
2023/04/27 00:28:41;;;;;;;2.22;1.35;;;18.40;66.60;;;;;;5051790;28;20067;-29
2023/04/27 00:31:07;;;;;;;2.33;1.70;;;18.40;66.20;;;;;;5051410;28;20045;-30
2023/04/27 00:33:35;;;;;;;2.50;1.65;;;18.10;66.10;;;;;;5051282;28;20053;-29
2023/04/27 00:36:01;;;;;;;2.38;1.42;;;18.70;66.40;;;;;;5051197;28;20400;-30
2023/04/27 00:38:28;;;;;;;2.05;1.40;;;;;;;;;;5051246;28;20056;-30
2023/04/27 00:41:01;;;;;;;2.08;1.45;;;18.30;46.50;;;;;;5059768;28;20055;-29
2023/04/27 00:43:27;;;;;;;2.00;1.35;;;18.00;63.50;;;;;;5066181;28;20056;-30
2023/04/27 00:45:55;;;;;;;3.17;1.35;;;17.60;60.00;;;;;;5039570;28;20422;-29
2023/04/27 00:48:22;;;;;;;2.83;1.33;;;18.20;50.70;;;;;;5031025;28;20449;-30
2023/04/27 00:50:49;;;;;;;1.60;1.40;;;;;;;;;;5031629;28;20049;-31
2023/04/27 00:53:16;;;;;;;2.08;1.35;;;17.40;65.90;;;;;;5031209;28;20055;-30
2023/04/27 00:55:43;;;;;;;2.10;1.45;;;19.10;67.30;;;;;;5037713;28;20051;-29
2023/04/27 00:58:10;;;;;;;1.55;1.30;;;;;;;;;;5051421;28;20049;-30
2023/04/27 01:00:37;;;;;;;2.50;1.48;;;19.40;67.10;;;;;;5051308;28;20460;-29
2023/04/27 01:03:05;;;;;;;2.28;1.55;;;18.20;65.70;;;;;;5051205;28;20053;-30
2023/04/27 01:05:33;;;;;;;1.80;1.50;;;18.30;66.90;;;;;;5051223;28;20049;-30
2023/04/27 01:07:59;;;;;;;1.70;1.40;;;18.20;54.40;;;;;;5051208;28;20128;-30
2023/04/27 01:10:26;;;;;;;2.60;1.50;;;17.70;55.90;;;;;;5051136;28;20055;-30
2023/04/27 01:12:53;;;;;;;3.53;1.50;;;18.30;66.70;;;;;;5058467;28;20048;-29
2023/04/27 01:15:19;;;;;;;2.53;1.58;;;18.10;67.00;;;;;;5071733;28;20045;-30
2023/04/27 01:17:47;;;;;;;2.22;1.20;;;;;;;;;;5070748;28;20049;-30
2023/04/27 01:20:15;;;;;;;2.00;1.40;;;18.10;46.80;;;;;;5073252;28;20126;-31
2023/04/27 01:22:42;;;;;;;1.95;1.60;;;;;;;;;;5074764;28;20056;-30
2023/04/27 01:25:11;;;;;;;2.30;1.50;;;19.10;67.30;;;;;;5064175;28;20045;-30
2023/04/27 01:27:38;;;;;;;2.03;1.50;;;18.00;50.30;;;;;;5054671;28;20452;-30
2023/04/27 01:30:06;;;;;;;2.22;1.50;;;17.30;48.10;;;;;;5055081;28;20049;-30
2023/04/27 01:32:32;;;;;;;2.65;1.50;;;18.20;51.90;;;;;;5054092;28;20512;-30
2023/04/27 01:34:59;;;;;;;2.30;1.50;;;18.90;67.50;;;;;;5054916;28;20059;-30
2023/04/27 01:37:26;;;;;;;2.25;1.45;;;17.80;67.10;;;;;;5054281;28;20059;-30
2023/04/27 01:39:53;;;;;;;1.77;1.50;;;;;;;;;;5036704;28;20063;-30
2023/04/27 01:42:21;;;;;;;2.50;1.40;;;18.20;67.30;;;;;;5054025;28;20055;-29
2023/04/27 01:44:48;;;;;;;2.42;1.42;;;18.00;66.90;;;;;;5054974;28;20387;-30
2023/04/27 01:47:16;;;;;;;1.67;1.48;;;;;;;;;;5054470;28;20413;-32
2023/04/27 01:49:42;;;;;;;1.85;1.60;;;17.60;66.80;;;;;;5054472;28;20053;-29
2023/04/27 01:52:09;;;;;;;2.40;1.55;;;;;;;;;;5036392;28;20052;-30
2023/04/27 01:54:36;;;;;;;2.00;1.50;;;16.60;66.30;;;;;;5054207;28;20132;-29
2023/04/27 01:57:03;;;;;;;2.17;1.50;;;18.40;67.30;;;;;;5054010;28;20735;-29
2023/04/27 01:59:31;;;;;;;2.10;1.60;;;17.80;62.20;;;;;;5053992;28;20497;-30
2023/04/27 02:01:57;;;;;;;1.85;1.45;;;17.80;53.70;;;;;;5054195;28;20045;-30
2023/04/27 02:04:24;;;;;;;1.95;1.42;;;17.50;66.70;;;;;;5054154;28;20049;-30
2023/04/27 02:06:51;;;;;;;2.17;1.50;;;18.80;67.40;;;;;;5054300;28;20049;-30
2023/04/27 02:09:18;;;;;;;2.08;1.70;;;;;;;;;;5053914;28;20049;-30
2023/04/27 02:11:45;;;;;;;2.33;1.70;;;;;;;;;;5053745;28;20421;-30
2023/04/27 02:14:13;;;;;;;2.38;1.55;;;;;;;;;;5054559;28;20493;-30
2023/04/27 02:16:41;;;;;;;3.03;1.70;;;17.70;66.90;;;;;;5073952;28;20053;-30
2023/04/27 02:19:08;;;;;;;1.75;1.33;;;;;;;;;;5073892;28;20052;-29
2023/04/27 02:21:35;;;;;;;1.85;1.50;;;18.00;65.10;;;;;;5073902;28;20048;-30
2023/04/27 02:24:01;;;;;;;2.63;1.70;;;17.60;55.90;;;;;;5072008;28;20048;-29
2023/04/27 02:26:28;;;;;;;2.67;1.70;;;;;;;;;;5053464;28;20047;-30
2023/04/27 02:28:55;;;;;;;1.90;1.50;;;17.90;67.20;;;;;;5053580;28;20056;-29
2023/04/27 02:31:22;;;;;;;2.10;1.60;;;;;;;;;;5052855;28;20057;-31
2023/04/27 02:33:50;;;;;;;2.20;1.60;;;18.30;67.70;;;;;;5053429;28;20052;-29
2023/04/27 02:36:17;;;;;;;2.17;1.65;;;18.00;67.50;;;;;;5053191;28;20045;-30
2023/04/27 02:38:44;;;;;;;2.55;1.63;;;17.30;59.40;;;;;;5052875;28;20080;-30
2023/04/27 02:41:11;;;;;;;1.92;1.60;;;;;;;;;;5053768;28;20056;-29
2023/04/27 02:43:38;;;;;;;2.90;1.40;;;17.90;67.20;;;;;;5052786;28;20041;-30
2023/04/27 02:46:04;;;;;;;2.22;1.50;;;18.00;67.40;;;;;;5053328;28;20049;-29
2023/04/27 02:48:31;;;;;;;2.08;1.58;;;17.70;60.30;;;;;;5053162;28;20091;-30
2023/04/27 02:50:59;;;;;;;2.28;1.60;;;17.10;67.30;;;;;;5053247;28;20103;-30
2023/04/27 02:53:26;;;;;;;2.13;1.75;;;17.40;67.00;;;;;;5059866;28;20041;-30
2023/04/27 02:55:52;;;;;;;2.33;1.50;;;17.80;67.70;;;;;;5073392;28;20059;-29
2023/04/27 02:58:20;;;;;;;2.17;1.52;;;17.90;53.00;;;;;;5053494;28;20134;-30
2023/04/27 03:00:47;;;;;;;2.53;1.55;;;;;;;;;;5053056;28;20075;-30
2023/04/27 03:03:13;;;;;;;2.33;1.75;;;17.70;59.70;;;;;;5053343;28;20045;-29
2023/04/27 03:05:40;;;;;;;2.42;1.60;;;17.50;67.10;;;;;;5053246;28;20045;-30
2023/04/27 03:08:08;;;;;;;2.60;1.98;;;17.80;51.90;;;;;;5053273;28;20075;-29
2023/04/27 03:10:35;;;;;;;2.00;1.60;;;16.80;67.20;;;;;;5053115;28;20045;-30
2023/04/27 03:13:02;;;;;;;2.50;1.50;;;;;;;;;;5043143;28;20053;-30
2023/04/27 03:15:29;;;;;;;1.70;1.60;;;17.30;67.40;;;;;;5072874;28;20048;-30
2023/04/27 03:17:55;;;;;;;2.05;1.60;;;17.60;67.70;;;;;;5072728;28;20503;-29
2023/04/27 03:20:22;;;;;;;1.90;1.70;;;16.10;52.00;;;;;;5072426;28;20071;-30
2023/04/27 03:22:49;;;;;;;1.63;1.50;;;18.70;67.90;;;;;;5072579;28;20048;-29
2023/04/27 03:25:17;;;;;;;1.80;1.58;;;17.50;47.10;;;;;;5072954;28;20045;-29
2023/04/27 03:27:43;;;;;;;1.88;1.40;;;17.20;67.50;;;;;;5032912;28;20391;-29
2023/04/27 03:30:11;;;;;;;2.35;1.60;;;17.50;47.10;;;;;;5032652;28;20049;-31
2023/04/27 03:32:38;;;;;;;2.10;1.58;;;;;;;;;;5032217;28;20045;-31
2023/04/27 03:35:06;;;;;;;1.60;1.38;;;17.90;54.70;;;;;;5032853;28;20099;-30
2023/04/27 03:37:33;;;;;;;1.67;1.42;;;17.30;67.20;;;;;;5046505;28;20132;-30
2023/04/27 03:40:00;;;;;;;2.17;1.70;;;17.30;67.30;;;;;;5051895;28;20045;-30
2023/04/27 03:42:28;;;;;;;2.20;1.50;;;17.70;47.20;;;;;;5052360;28;20041;-30
2023/04/27 03:44:55;;;;;;;2.83;1.60;;;;;;;;;;5052141;28;20409;-30
2023/04/27 03:47:22;;;;;;;2.22;1.73;;;16.50;66.60;;;;;;5052252;28;20055;-29
2023/04/27 03:49:48;;;;;;;2.45;1.70;;;17.80;67.30;;;;;;5052197;28;20045;-29
2023/04/27 03:52:15;;;;;;;2.38;1.40;;;17.50;54.40;;;;;;5051801;28;20051;-30
2023/04/27 03:54:42;;;;;;;2.67;1.60;;;;;;;;;;5040546;28;20060;-30
2023/04/27 03:57:09;;;;;;;1.70;1.60;;;;;;;;;;5051951;28;20055;-31
2023/04/27 03:59:37;;;;;;;2.65;1.80;;;18.30;67.20;;;;;;5052238;28;20055;-29
2023/04/27 04:02:04;;;;;;;2.10;1.60;;;17.90;67.00;;;;;;5051656;28;20060;-29
2023/04/27 04:04:31;;;;;;;1.92;1.23;;;18.10;67.20;;;;;;5052076;28;20052;-30
2023/04/27 04:06:58;;;;;;;1.58;1.48;;;18.00;59.90;;;;;;5051797;28;20045;-29
2023/04/27 04:09:24;;;;;;;2.28;1.75;;;18.40;67.20;;;;;;5051824;28;20052;-29
2023/04/27 04:11:51;;;;;;;1.92;1.58;;;17.60;54.50;;;;;;5051861;28;20053;-30
2023/04/27 04:14:18;;;;;;;2.65;1.65;;;;;;;;;;5070579;28;20119;-29
2023/04/27 04:16:46;;;;;;;2.20;1.50;;;18.30;67.10;;;;;;5056186;28;20408;-29
2023/04/27 04:19:13;;;;;;;2.10;1.63;;;17.80;67.00;;;;;;5051576;28;20053;-30
2023/04/27 04:21:40;;;;;;;2.05;1.50;;;;;;;;;;5051832;28;20051;-30
2023/04/27 04:24:09;;;;;;;2.67;1.50;;;18.10;46.60;;;;;;5051382;28;20055;-30
2023/04/27 04:26:36;;;;;;;2.05;1.65;;;18.10;67.10;;;;;;5051587;28;20049;-30
2023/04/27 04:29:03;;;;;;;1.85;1.42;;;17.80;64.60;;;;;;5051482;28;20087;-30
2023/04/27 04:31:29;;;;;;;3.55;1.95;;;17.90;66.50;;;;;;5051973;28;20056;-29
2023/04/27 04:33:57;;;;;;;2.15;1.60;;;17.70;51.80;;;;;;5051566;28;20400;-30
2023/04/27 04:36:25;;;;;;;2.53;1.63;;;;;;;;;;5050626;28;20048;-30
2023/04/27 04:38:52;;;;;;;2.03;1.48;;;19.40;67.20;;;;;;5051529;28;20049;-30
2023/04/27 04:41:19;;;;;;;1.65;1.40;;;17.10;65.90;;;;;;5051556;28;20049;-30
2023/04/27 04:43:47;;;;;;;2.20;1.60;;;18.90;53.30;;;;;;5051162;28;20045;-30
2023/04/27 04:46:14;;;;;;;1.75;1.55;;;18.30;66.40;;;;;;5033726;28;20493;-30
2023/04/27 04:48:41;;;;;;;3.03;1.45;;;;;;;;;;5051292;28;20059;-31
2023/04/27 04:51:09;;;;;;;2.03;1.42;;;19.20;67.10;;;;;;5051092;28;20048;-29
2023/04/27 04:53:36;;;;;;;2.10;1.70;;;19.50;66.80;;;;;;5051091;28;20402;-30
2023/04/27 04:56:08;;;;;;;2.38;1.52;;;19.20;67.10;;;;;;5054653;28;20075;-29
2023/04/27 04:58:35;;;;;;;1.95;1.58;;;18.90;57.80;;;;;;5055555;28;20136;-30
2023/04/27 05:01:02;;;;;;;2.42;1.58;;;18.90;66.40;;;;;;5055236;28;20047;-30
2023/04/27 05:03:29;;;;;;;2.03;1.60;;;;;;;;;;5055078;28;20144;-29
2023/04/27 05:05:56;;;;;;;2.22;1.50;;;;;;;;;;5055328;28;20053;-29
2023/04/27 05:08:24;;;;;;;2.42;1.80;;;18.80;66.20;;;;;;5055194;28;20049;-30
2023/04/27 05:10:51;;;;;;;2.17;1.67;;;18.60;66.40;;;;;;5055490;28;20147;-29
2023/04/27 05:13:18;;;;;;;2.78;1.52;;;;;;;;;;5065378;28;20494;-30
2023/04/27 05:15:45;;;;;;;2.05;1.50;;;;;;;;;;5075248;28;20052;-30
2023/04/27 05:18:12;;;;;;;1.85;1.55;;;18.70;49.60;;;;;;5075076;28;20094;-30
2023/04/27 05:20:39;;;;;;;2.05;1.70;;;;;;;;;;5060572;28;20508;-29
2023/04/27 05:23:06;;;;;;;4.40;1.83;;;;;;;;;;5054789;28;20513;-31
2023/04/27 05:25:40;;;;;;;2.75;1.70;;;19.50;66.30;;;;;;5054926;28;20048;-30
2023/04/27 05:28:07;;;;;;;2.63;1.48;;;;;;;;;;5055024;28;20179;-30
2023/04/27 05:30:33;;;;;;;2.20;1.67;;;18.70;66.30;;;;;;5054888;28;20055;-28
2023/04/27 05:33:00;;;;;;;1.60;1.50;;;18.40;54.80;;;;;;5054704;28;20045;-30
2023/04/27 05:35:27;;;;;;;2.13;1.50;;;18.40;48.90;;;;;;5054347;28;20474;-30
2023/04/27 05:37:54;;;;;;;2.50;1.70;;;;;;;;;;5054136;28;20052;-29
2023/04/27 05:40:21;;;;;;;2.60;1.60;;;;;;;;;;5054635;28;20041;-30
2023/04/27 05:42:49;;;;;;;2.22;1.67;;;17.40;65.50;;;;;;5054790;28;20048;-30
2023/04/27 05:45:16;;;;;;;1.70;1.58;;;18.90;66.30;;;;;;5054422;28;20041;-30
2023/04/27 05:47:43;;;;;;;1.80;1.50;;;18.40;58.60;;;;;;5054511;28;20053;-29
2023/04/27 05:50:10;;;;;;;2.22;1.73;;;18.60;47.70;;;;;;5054145;28;20045;-30
2023/04/27 05:52:37;;;;;;;1.95;1.70;;;18.40;48.50;;;;;;5054407;28;20052;-30
2023/04/27 05:55:06;;;;;;;2.15;1.75;;;18.70;58.40;;;;;;5054399;28;20057;-29
2023/04/27 05:57:33;;;;;;;2.10;1.80;;;;;;;;;;5054305;28;20445;-30
2023/04/27 06:00:01;;;;;;;2.00;1.70;;;19.00;66.40;;;;;;5054102;28;20520;-29
2023/04/27 06:02:28;;;;;;;2.10;1.80;;;18.30;58.90;;;;;;5053641;28;20490;-30
2023/04/27 06:04:55;;;;;;;2.85;1.75;;;;;;;;;;5054480;28;20057;-31
2023/04/27 06:07:22;;;;;;;2.70;1.70;;;17.30;65.10;;;;;;5053125;28;20409;-29
2023/04/27 06:09:48;;;;;;;2.08;1.80;;;18.30;56.60;;;;;;5053988;28;20085;-29
2023/04/27 06:12:16;;;;;;;1.92;1.60;;;;;;;;;;5056022;28;20049;-31
2023/04/27 06:14:43;;;;;;;2.05;1.77;;;;;;;;;;5074030;28;20063;-29
2023/04/27 06:17:11;;;;;;;2.58;1.70;;;18.60;45.90;;;;;;5062287;28;20075;-30
2023/04/27 06:19:38;;;;;;;2.15;1.70;;;;;;;;;;5053891;28;20045;-31
2023/04/27 06:22:05;;;;;;;2.80;1.70;;;18.50;65.70;;;;;;5053749;28;20049;-29
2023/04/27 06:24:32;;;;;;;3.15;1.80;;;18.50;66.10;;;;;;5053952;28;20480;-30
2023/04/27 06:26:58;;;;;;;3.00;1.75;;;18.60;66.10;;;;;;5053793;28;20049;-30
2023/04/27 06:29:25;;;;;;;2.10;1.70;;;17.90;65.50;;;;;;5053834;28;20072;-30
2023/04/27 06:31:52;;;;;;;2.30;1.60;;;;;;;;;;5053395;28;20456;-31
2023/04/27 06:34:20;;;;;;;2.00;1.70;;;17.90;62.90;;;;;;5048003;28;20040;-30
2023/04/27 06:36:47;;;;;;;2.10;1.60;;;18.70;65.70;;;;;;5042478;28;20041;-30
2023/04/27 06:39:13;;;;;;;2.63;1.73;;;18.60;66.10;;;;;;5051471;28;20508;-30
2023/04/27 06:41:40;;;;;;;2.80;1.80;;;;;;;;;;5053698;28;20063;-30
2023/04/27 06:44:07;;;;;;;2.22;1.55;;;18.50;66.10;;;;;;5045454;28;20045;-30
2023/04/27 06:46:34;;;;;;;1.70;1.45;;;19.00;66.10;;;;;;5052807;28;20127;-30
2023/04/27 06:49:01;;;;;;;2.25;1.80;;;17.40;65.50;;;;;;5053078;28;20059;-30
2023/04/27 06:51:29;;;;;;;2.97;1.70;;;18.60;45.90;;;;;;5043768;28;20042;-30
2023/04/27 06:53:56;;;;;;;1.90;1.55;;;19.00;65.80;;;;;;5033076;28;20053;-30
2023/04/27 06:56:23;;;;;;;2.70;1.60;;;18.80;58.90;;;;;;5033338;28;20518;-30
2023/04/27 06:58:50;;;;;;;2.70;1.73;;;19.00;65.70;;;;;;5034928;28;20045;-30
2023/04/27 07:01:17;;;;;;;2.08;1.38;;;18.90;50.50;;;;;;5052983;28;20474;-30
2023/04/27 07:03:43;;;;;;;3.08;1.50;;;18.60;65.40;;;;;;5053195;28;20048;-29
2023/04/27 07:06:10;;;;;;;1.73;1.40;;;19.20;65.70;;;;;;5053250;28;20055;-29
2023/04/27 07:08:38;;;;;;;4.40;2.22;;;18.90;45.70;;;;;;5053155;28;20055;-31
2023/04/27 07:11:05;;;;;;;2.17;1.45;;;;;;;;;;5051993;28;20416;-31
2023/04/27 07:13:32;;;;;;;1.40;1.15;;;19.10;50.40;;;;;;5055287;28;20049;-29
2023/04/27 07:15:59;;;;;;;1.35;1.20;;;19.70;65.50;;;;;;5046281;28;20045;-29
2023/04/27 07:18:27;;;;;;;1.77;1.25;;;19.30;65.10;;;;;;5045914;28;20052;-30
2023/04/27 07:20:54;;;;;;;1.65;1.50;;;;;;;;;;5052266;28;20075;-30
2023/04/27 07:23:22;;;;;;;2.85;1.40;;;;;;;;;;5048746;28;20040;-30
2023/04/27 07:25:50;;;;;;;1.73;1.40;;;19.40;45.50;;;;;;5048948;28;20475;-30
2023/04/27 07:28:17;;;;;;;3.60;1.20;;;19.60;65.00;;;;;;5049710;28;20045;-29
2023/04/27 07:30:44;;;;;;;2.40;1.45;;;19.70;50.20;;;;;;5052137;28;20485;-29
2023/04/27 07:33:12;;;;;;;2.05;1.20;;;19.80;65.00;;;;;;5052282;28;20057;-29
2023/04/27 07:35:38;;;;;;;2.15;1.30;;;19.30;64.50;;;;;;5049636;28;20049;-30
2023/04/27 07:38:06;;;;;;;2.00;1.40;;;19.40;64.40;;;;;;5048963;28;20049;-30
2023/04/27 07:40:33;;;;;;;1.88;1.20;;;;;;;;;;5049098;28;20585;-30
2023/04/27 07:43:01;;;;;;;2.45;1.40;;;19.80;45.10;;;;;;5051806;28;20048;-31
2023/04/27 07:45:31;;;;;;;1.73;1.30;;;;;;;;;;5051857;28;20107;-31
2023/04/27 07:47:59;;;;;;;1.65;1.30;;;;;;;;;;5049387;28;20041;-30
2023/04/27 07:50:26;;;;;;;1.90;1.40;;;19.90;44.90;;;;;;5052324;28;20045;-30
2023/04/27 07:52:53;;;;;;;3.30;1.30;;;19.90;48.90;;;;;;5054864;28;20063;-30
2023/04/27 07:55:21;;;;;;;2.38;1.58;;;19.90;64.30;;;;;;5054472;28;20520;-29
2023/04/27 07:57:47;;;;;;;2.03;1.17;;;21.10;64.50;;;;;;5051678;28;20076;-30
2023/04/27 08:00:16;;;;;;;1.40;1.10;;;19.80;64.10;;;;;;5052287;28;20408;-30
2023/04/27 08:02:43;;;;;;;1.92;1.23;;;19.50;45.90;;;;;;5052069;28;20132;-30
2023/04/27 08:05:10;;;;;;;1.85;1.20;;;20.60;64.40;;;;;;5051995;28;20059;-29
2023/04/27 08:07:36;;;;;;;1.83;1.30;;;20.60;64.20;;;;;;5048335;28;20047;-29
2023/04/27 08:10:04;;;;;;;1.10;1.00;;;20.70;53.90;;;;;;5051549;28;20041;-30
2023/04/27 08:12:30;;;;;;;2.42;1.50;;;19.50;63.40;;;;;;5052866;28;20055;-29
2023/04/27 08:14:57;;;;;;;1.38;1.00;;;20.20;49.90;;;;;;5051197;28;20045;-30
2023/04/27 08:17:25;;;;;;;1.50;1.30;;;20.80;64.50;;;;;;5051502;28;20037;-30
2023/04/27 08:19:52;;;;;;;1.63;1.20;;;19.40;62.80;;;;;;5033337;28;20476;-30
2023/04/27 08:22:19;;;;;;;1.90;1.30;;;20.40;63.40;;;;;;5049045;28;20508;-29
2023/04/27 08:24:46;;;;;;;1.50;1.20;;;;;;;;;;5051395;28;20045;-30
2023/04/27 08:27:12;;;;;;;1.30;1.00;;;20.90;63.40;;;;;;5049729;28;20041;-30
2023/04/27 08:29:39;;;;;;;1.70;1.20;;;20.40;63.50;;;;;;5050316;28;20045;-29
2023/04/27 08:32:06;;;;;;;1.25;1.10;;;19.80;52.90;;;;;;5050243;28;20049;-30
2023/04/27 08:34:34;;;;;;;1.70;1.20;;;20.80;44.40;;;;;;5046704;28;20053;-30
2023/04/27 08:37:03;;;;;;;1.27;1.17;;;20.40;63.20;;;;;;5050862;28;20051;-30
2023/04/27 08:39:29;;;;;;;2.25;1.27;;;21.00;63.30;;;;;;5051446;28;20561;-29
2023/04/27 08:41:56;;;;;;;1.13;1.02;;;20.90;50.70;;;;;;5048093;28;20052;-30
2023/04/27 08:44:23;;;;;;;1.60;1.30;;;21.00;63.70;;;;;;5048049;28;20049;-30
2023/04/27 08:46:49;;;;;;;2.03;1.10;;;21.80;63.20;;;;;;5042295;28;20081;-29
2023/04/27 08:49:16;;;;;;;1.27;1.10;;;;;;;;;;5049298;28;20131;-31
2023/04/27 08:51:44;;;;;;;2.08;1.20;;;21.40;63.00;;;;;;5047860;28;20049;-29
2023/04/27 08:54:11;;;;;;;1.10;1.00;;;21.00;62.80;;;;;;5049735;28;20048;-29
2023/04/27 08:56:39;;;;;;;1.95;1.20;;;21.10;62.30;;;;;;5051593;28;20052;-29
2023/04/27 08:59:13;;;;;;;1.50;1.10;;;22.30;62.80;;;;;;5044729;28;20049;-30
2023/04/27 09:01:44;;;;;;;1.92;1.15;;;21.70;63.30;;;;;;5051741;28;20051;-29
2023/04/27 09:04:11;;;;;;;1.55;1.10;;;;;;;;;;5049479;28;20130;-31
2023/04/27 09:06:37;;;;;;;1.17;1.08;;;21.80;62.70;;;;;;5049336;28;20059;-29
2023/04/27 09:09:07;;;;;;;1.85;1.20;;;21.20;62.80;;;;;;5049449;28;20047;-29
2023/04/27 09:11:34;;;;;;;1.42;1.05;;;22.60;62.50;;;;;;5049541;28;20106;-30
2023/04/27 09:14:02;;;;;;;1.40;1.20;;;21.70;51.00;;;;;;5048650;28;20054;-30
2023/04/27 09:16:30;;;;;;;1.73;1.13;;;21.00;51.90;;;;;;5051000;28;20523;-29
2023/04/27 09:18:57;;;;;;;2.45;1.20;;;22.20;62.50;;;;;;5047736;28;20447;-30
2023/04/27 09:21:24;;;;;;;1.60;1.20;;;21.60;61.60;;;;;;5049076;28;20040;-30
2023/04/27 09:23:51;;;;;;;1.55;1.05;;;;;;;;;;5047059;28;20052;-31
2023/04/27 09:26:23;;;;;;;1.20;1.10;;;21.50;61.90;;;;;;5048833;28;20416;-30
2023/04/27 09:28:50;;;;;;;1.67;1.20;;;21.70;50.30;;;;;;5049541;28;20127;-30
2023/04/27 09:31:17;;;;;;;1.25;1.00;;;21.30;62.10;;;;;;5050307;28;20139;-29
2023/04/27 09:33:44;;;;;;;2.90;1.25;;;22.60;50.70;;;;;;5048143;28;20041;-30
2023/04/27 09:36:11;;;;;;;1.70;1.20;;;21.90;61.30;;;;;;5048743;28;20056;-30
2023/04/27 09:38:38;;;;;;;1.88;1.20;;;;;;;;;;5048409;28;20535;-30
2023/04/27 09:41:05;;;;;;;1.90;1.30;;;21.90;61.90;;;;;;5049849;28;20045;-30
2023/04/27 09:43:33;;;;;;;1.83;1.30;;;22.20;61.30;;;;;;5054300;28;20044;-30
2023/04/27 09:46:00;;;;;;;1.65;1.30;;;21.50;61.50;;;;;;5052106;28;20499;-30
2023/04/27 09:48:27;;;;;;;1.50;1.23;;;;;;;;;;5051352;28;20099;-30
2023/04/27 09:50:54;;;;;;;2.08;1.35;;;21.80;61.60;;;;;;5049260;28;20060;-30
2023/04/27 09:53:23;;;;;;;2.95;1.20;;;21.80;51.40;;;;;;5045638;28;20045;-30
2023/04/27 09:55:54;;;;;;;2.08;1.40;;;21.40;61.40;;;;;;5053063;28;20640;-30
2023/04/27 09:58:40;;;;;;;1.23;1.13;;;23.00;62.20;;;;;;5054276;28;20481;-30
2023/04/27 10:01:10;;;;;;;2.15;1.20;;;21.60;62.00;;;;;;5053352;28;20430;-30
2023/04/27 10:03:43;;;;;;;2.30;1.30;;;21.90;56.00;;;;;;5047566;28;20051;-30
2023/04/27 10:06:39;;;;;;;1.65;1.33;;;20.80;60.70;;;;;;5045942;28;20044;-29
2023/04/27 10:09:06;;;;;;;1.90;1.20;;;;;;;;;;5035873;28;20048;-30
2023/04/27 10:11:39;;;;;;;1.35;1.25;;;22.40;61.90;;;;;;5051840;28;20128;-30
2023/04/27 10:14:08;;;;;;;1.77;1.30;;;22.30;62.40;;;;;;5052872;28;20045;-30
2023/04/27 10:16:40;;;;;;;1.83;1.40;;;22.70;62.50;;;;;;5054247;28;20086;-29
2023/04/27 10:19:09;;;;;;;1.95;1.40;;;22.50;44.70;;;;;;5034203;28;20056;-30
2023/04/27 10:21:37;;;;;;;1.52;1.23;;;22.90;61.90;;;;;;5052776;28;20049;-30
2023/04/27 10:24:07;;;;;;;1.85;1.35;;;21.40;55.80;;;;;;5052548;28;20045;-30
2023/04/27 10:26:33;;;;;;;1.92;1.50;;;22.20;57.80;;;;;;5053124;28;20091;-30
2023/04/27 10:29:05;;;;;;;2.20;1.42;;;21.70;42.90;;;;;;5052471;28;20093;-30
2023/04/27 10:31:33;;;;;;;1.98;1.60;;;21.60;42.90;;;;;;5053675;28;20061;-30
2023/04/27 10:34:08;;;;;;;3.72;1.38;;;21.60;43.00;;;;;;5044388;28;20056;-30
2023/04/27 10:36:36;;;;;;;2.00;1.42;;;;;;;;;;5049092;28;20053;-30
2023/04/27 10:39:04;;;;;;;1.55;1.30;;;21.60;62.30;;;;;;5052977;28;20048;-29
2023/04/27 10:41:34;;;;;;;1.88;1.33;;;21.30;61.30;;;;;;5051092;28;20059;-30
2023/04/27 10:44:13;;;;;;;2.53;1.40;;;21.20;61.70;;;;;;5044269;28;20049;-29
2023/04/27 10:46:51;;;;;;;3.03;1.52;;;20.90;55.30;;;;;;5049969;28;20049;-30
2023/04/27 10:49:17;;;;;;;2.35;1.40;;;21.50;62.60;;;;;;5046950;28;20172;-29
2023/04/27 10:51:44;;;;;;;1.83;1.42;;;21.50;48.00;;;;;;5044560;28;20051;-30
2023/04/27 10:54:11;;;;;;;1.60;1.20;;;21.70;61.80;;;;;;5049825;28;20487;-30
2023/04/27 10:56:38;;;;;;;1.52;1.25;;;;;;;;;;5050399;28;20152;-31
2023/04/27 10:59:06;;;;;;;1.88;1.50;;;20.80;61.80;;;;;;5050597;28;20067;-30
2023/04/27 11:01:33;;;;;;;2.15;1.40;;;21.20;62.00;;;;;;5053027;28;20102;-30
2023/04/27 11:04:01;;;;;;;2.00;1.33;;;21.90;62.50;;;;;;5049290;28;20041;-30
2023/04/27 11:06:29;;;;;;;2.10;1.42;;;21.20;56.00;;;;;;5050121;28;20068;-30
2023/04/27 11:08:55;;;;;;;1.65;1.30;;;21.30;58.30;;;;;;5044692;28;20410;-30
2023/04/27 11:11:23;;;;;;;1.80;1.30;;;21.40;62.60;;;;;;5049999;28;20057;-30
2023/04/27 11:13:51;;;;;;;2.38;1.40;;;21.50;63.20;;;;;;5052388;28;20408;-30
2023/04/27 11:16:19;;;;;;;1.95;1.40;;;20.90;62.50;;;;;;5052597;28;20037;-29
2023/04/27 11:18:45;;;;;;;2.03;1.38;;;20.30;61.70;;;;;;5049323;28;20520;-30
2023/04/27 11:21:14;;;;;;;2.35;1.52;;;21.20;63.30;;;;;;5050134;28;20051;-30
2023/04/27 11:23:41;;;;;;;1.85;1.45;;;21.50;56.20;;;;;;5052143;28;20061;-29
2023/04/27 11:26:11;;;;;;;1.92;1.40;;;21.10;62.10;;;;;;5051772;28;20049;-30
2023/04/27 11:28:38;;;;;;;2.65;1.40;;;;;;;;;;5043726;28;20052;-30
2023/04/27 11:31:04;;;;;;;1.35;1.23;;;20.70;63.30;;;;;;5049145;28;20057;-29
2023/04/27 11:33:32;;;;;;;1.50;1.40;;;;;;;;;;5048468;28;20048;-31
2023/04/27 11:35:58;;;;;;;1.35;1.25;;;21.70;63.20;;;;;;5047728;28;20048;-30
2023/04/27 11:38:32;;;;;;;1.95;1.40;;;20.30;62.80;;;;;;5046879;28;20049;-30
2023/04/27 11:40:59;;;;;;;1.60;1.35;;;20.20;62.90;;;;;;5043031;28;20037;-30
2023/04/27 11:43:26;;;;;;;2.05;1.50;;;21.40;50.80;;;;;;5048375;28;20055;-30
2023/04/27 11:45:53;;;;;;;2.15;1.35;;;20.50;63.60;;;;;;5043902;28;20060;-30
2023/04/27 11:48:22;;;;;;;1.50;1.30;;;20.00;51.90;;;;;;5046086;28;20041;-30
2023/04/27 11:50:49;;;;;;;1.70;1.40;;;20.70;63.30;;;;;;5050120;28;20059;-29
2023/04/27 11:53:16;;;;;;;2.03;1.35;;;;;;;;;;5050075;28;20045;-30
2023/04/27 11:55:44;;;;;;;2.08;1.40;;;20.60;64.00;;;;;;5046077;28;20059;-30
2023/04/27 11:58:14;;;;;;;1.40;1.30;;;19.90;63.20;;;;;;5042406;28;20081;-30
2023/04/27 12:00:41;;;;;;;2.47;1.50;;;19.90;46.70;;;;;;5044087;28;20053;-30
2023/04/27 12:03:08;;;;;;;1.48;1.38;;;19.90;63.00;;;;;;5050011;28;20056;-29
2023/04/27 12:05:35;;;;;;;2.05;1.60;;;20.20;63.50;;;;;;5050346;28;20049;-30
2023/04/27 12:08:01;;;;;;;1.95;1.40;;;20.20;63.60;;;;;;5050161;28;20053;-29
2023/04/27 12:10:29;;;;;;;1.60;1.40;;;;;;;;;;5051858;28;20056;-31
2023/04/27 12:12:57;;;;;;;2.25;1.52;;;20.10;44.40;;;;;;5049623;28;20048;-29
2023/04/27 12:15:24;;;;;;;1.95;1.60;;;20.30;45.00;;;;;;5049847;28;20551;-29
2023/04/27 12:17:51;;;;;;;2.30;1.67;;;19.80;53.70;;;;;;5047465;28;20047;-30
2023/04/27 12:20:18;;;;;;;2.28;1.50;;;20.00;64.00;;;;;;5049612;28;20076;-29
2023/04/27 12:22:44;;;;;;;2.28;1.35;;;20.50;64.00;;;;;;5051106;28;20049;-29
2023/04/27 12:25:11;;;;;;;2.92;1.58;;;20.10;49.70;;;;;;5049908;28;20486;-30
2023/04/27 12:27:38;;;;;;;2.45;1.52;;;19.90;63.40;;;;;;5049639;28;20049;-30
2023/04/27 12:30:07;;;;;;;3.13;1.45;;;20.20;64.10;;;;;;5049492;28;20044;-30
2023/04/27 12:32:34;;;;;;;2.22;1.52;;;19.10;63.20;;;;;;5049058;28;20509;-29
2023/04/27 12:35:01;;;;;;;2.00;1.45;;;;;;;;;;5031678;28;20068;-30
2023/04/27 12:37:28;;;;;;;1.50;1.40;;;;;;;;;;5050891;28;20052;-30
2023/04/27 12:39:56;;;;;;;3.30;1.67;;;;;;;;;;5049196;28;20056;-30
2023/04/27 12:42:23;;;;;;;4.10;1.45;;;19.80;64.00;;;;;;5049379;28;20076;-30
2023/04/27 12:44:50;;;;;;;1.50;1.40;;;19.90;62.40;;;;;;5049008;28;20055;-29
2023/04/27 12:47:18;;;;;;;3.08;1.48;;;19.30;64.50;;;;;;5049433;28;20049;-29
2023/04/27 12:49:45;;;;;;;1.77;1.40;;;18.90;63.50;;;;;;5042892;28;20394;-30
2023/04/27 12:52:12;;;;;;;1.88;1.50;;;;;;;;;;5051214;28;20412;-30
2023/04/27 12:54:39;;;;;;;1.80;1.40;;;19.90;64.80;;;;;;5040751;28;20059;-29
2023/04/27 12:57:06;;;;;;;1.80;1.50;;;;;;;;;;5047904;28;20120;-30
2023/04/27 12:59:33;;;;;;;2.22;1.60;;;19.00;60.60;;;;;;5047799;28;20048;-30
2023/04/27 13:02:00;;;;;;;1.55;1.33;;;18.80;63.70;;;;;;5038510;28;20049;-30
2023/04/27 13:04:29;;;;;;;2.38;1.52;;;18.50;63.20;;;;;;5051322;28;20045;-30
2023/04/27 13:06:58;;;;;;;2.78;1.60;;;20.10;65.00;;;;;;5045320;28;20055;-29
2023/04/27 13:09:25;;;;;;;3.05;1.50;;;;;;;;;;5040605;28;20123;-30
2023/04/27 13:11:53;;;;;;;1.92;1.48;;;19.90;55.40;;;;;;5049746;28;20403;-29